createdAt,value
2017-10-06T00:02:10.517Z,31.00
2017-10-06T00:04:39.893Z,31.00
2017-10-06T00:07:08.617Z,30.90
2017-10-06T00:09:36.693Z,31.00
2017-10-06T00:12:04.625Z,31.00
2017-10-06T00:14:33.002Z,31.00
2017-10-06T00:17:01.078Z,31.00
2017-10-06T00:19:29.735Z,30.90
2017-10-06T00:21:57.700Z,30.90
2017-10-06T00:24:25.809Z,31.00
2017-10-06T00:26:53.769Z,30.90
2017-10-06T00:29:21.728Z,30.90
2017-10-06T00:31:50.433Z,30.80
2017-10-06T00:34:19.635Z,30.80
2017-10-06T00:36:48.213Z,30.90
2017-10-06T00:39:16.329Z,30.90
2017-10-06T00:41:44.314Z,30.70
2017-10-06T00:44:12.313Z,30.80
2017-10-06T00:46:41.195Z,30.80
2017-10-06T00:49:09.873Z,30.90
2017-10-06T00:51:37.949Z,30.90
2017-10-06T00:54:06.054Z,30.80
2017-10-06T00:56:34.145Z,30.90
2017-10-06T00:59:02.285Z,30.90
2017-10-06T01:01:30.961Z,30.80
2017-10-06T01:03:58.893Z,30.90
2017-10-06T01:06:27.707Z,30.80
2017-10-06T01:08:55.845Z,30.80
2017-10-06T01:11:24.634Z,30.80
2017-10-06T01:13:53.333Z,30.80
2017-10-06T01:16:22.444Z,30.80
2017-10-06T01:18:50.385Z,30.80
2017-10-06T01:21:19.040Z,30.70
2017-10-06T01:23:47.850Z,30.80
2017-10-06T01:26:16.029Z,30.70
2017-10-06T01:28:44.108Z,30.70
2017-10-06T01:31:12.857Z,30.80
2017-10-06T01:33:41.537Z,30.70
2017-10-06T01:36:10.053Z,30.70
2017-10-06T01:38:38.713Z,30.60
2017-10-06T01:41:07.397Z,30.60
2017-10-06T01:43:35.381Z,30.60
2017-10-06T01:46:03.506Z,30.60
2017-10-06T01:48:32.305Z,30.30
2017-10-06T01:51:00.265Z,30.30
2017-10-06T01:53:29.708Z,30.30
2017-10-06T01:55:58.397Z,30.30
2017-10-06T01:58:26.345Z,30.40
2017-10-06T02:00:54.681Z,30.40
2017-10-06T02:03:23.153Z,30.30
2017-10-06T02:05:51.611Z,30.40
2017-10-06T02:08:20.496Z,30.40
2017-10-06T02:10:49.131Z,30.30
2017-10-06T02:13:18.248Z,30.10
2017-10-06T02:15:47.785Z,30.00
2017-10-06T02:18:17.321Z,30.00
2017-10-06T02:20:46.241Z,30.00
2017-10-06T02:23:15.967Z,29.90
2017-10-06T02:25:44.793Z,29.90
2017-10-06T02:28:12.749Z,29.90
2017-10-06T02:30:41.458Z,29.90
2017-10-06T02:33:10.066Z,29.90
2017-10-06T02:35:38.649Z,29.90
2017-10-06T02:38:06.853Z,29.80
2017-10-06T02:40:35.539Z,29.90
2017-10-06T02:43:04.223Z,30.00
2017-10-06T02:45:33.069Z,30.00
2017-10-06T02:48:01.014Z,30.00
2017-10-06T02:50:29.617Z,30.00
2017-10-06T02:52:57.665Z,30.20
2017-10-06T02:55:26.173Z,30.20
2017-10-06T02:57:54.925Z,30.20
2017-10-06T03:00:23.961Z,30.10
2017-10-06T03:02:51.881Z,30.10
2017-10-06T03:05:21.021Z,30.10
2017-10-06T03:07:49.709Z,30.10
2017-10-06T03:10:21.146Z,30.20
2017-10-06T03:12:56.938Z,30.30
2017-10-06T03:15:25.777Z,30.40
2017-10-06T03:17:58.488Z,30.50
2017-10-06T03:20:31.446Z,30.40
2017-10-06T03:23:07.017Z,30.50
2017-10-06T03:25:36.258Z,30.70
2017-10-06T03:28:10.633Z,30.80
2017-10-06T03:30:38.809Z,30.90
2017-10-06T03:33:26.029Z,30.90
2017-10-06T03:36:02.189Z,31.00
2017-10-06T03:38:35.457Z,31.10
2017-10-06T03:41:12.963Z,31.30
2017-10-06T03:43:41.074Z,31.30
2017-10-06T03:46:12.356Z,31.50
2017-10-06T03:48:40.525Z,31.50
2017-10-06T03:51:09.790Z,32.00
2017-10-06T03:53:39.600Z,32.00
2017-10-06T03:56:11.157Z,33.00
2017-10-06T03:58:41.397Z,33.50
2017-10-06T04:01:19.541Z,33.10
2017-10-06T04:03:50.075Z,33.20
2017-10-06T04:06:25.284Z,32.80
2017-10-06T04:08:53.445Z,32.70
2017-10-06T04:11:25.382Z,32.60
2017-10-06T04:14:00.929Z,32.60
2017-10-06T04:16:32.253Z,32.70
2017-10-06T04:19:01.002Z,32.70
2017-10-06T04:21:29.022Z,32.70
2017-10-06T04:23:57.748Z,32.80
2017-10-06T04:26:26.741Z,32.80
2017-10-06T04:28:55.421Z,32.80
2017-10-06T04:31:23.421Z,33.00
2017-10-06T04:33:51.897Z,33.10
2017-10-06T04:36:20.982Z,33.20
2017-10-06T04:38:50.958Z,33.30
2017-10-06T04:41:20.477Z,33.60
2017-10-06T04:43:49.142Z,33.50
2017-10-06T04:46:19.314Z,33.50
2017-10-06T04:48:47.821Z,33.50
2017-10-06T04:51:16.410Z,33.80
2017-10-06T04:53:45.000Z,34.20
2017-10-06T04:56:13.534Z,34.60
2017-10-06T04:58:42.799Z,34.80
2017-10-06T05:01:12.508Z,34.90
2017-10-06T05:03:41.993Z,34.80
2017-10-06T05:06:10.318Z,34.70
2017-10-06T05:08:40.029Z,35.40
2017-10-06T05:11:08.876Z,36.10
2017-10-06T05:13:37.394Z,37.00
2017-10-06T05:16:08.864Z,36.90
2017-10-06T05:18:37.533Z,36.90
2017-10-06T05:21:07.861Z,37.70
2017-10-06T05:23:37.506Z,37.40
2017-10-06T05:26:07.226Z,37.40
2017-10-06T05:28:35.557Z,37.00
2017-10-06T05:31:04.954Z,36.70
2017-10-06T05:33:34.229Z,35.90
2017-10-06T05:36:03.623Z,35.80
2017-10-06T05:38:34.554Z,36.60
2017-10-06T05:41:02.993Z,36.70
2017-10-06T05:43:31.305Z,36.50
2017-10-06T05:46:00.089Z,36.60
2017-10-06T05:48:28.282Z,36.50
2017-10-06T05:50:57.629Z,36.40
2017-10-06T05:53:27.628Z,36.30
2017-10-06T05:55:57.098Z,36.30
2017-10-06T05:58:27.622Z,36.60
2017-10-06T06:00:57.921Z,36.80
2017-10-06T06:03:27.199Z,36.60
2017-10-06T06:05:55.705Z,36.70
2017-10-06T06:08:24.661Z,36.80
2017-10-06T06:10:55.417Z,37.30
2017-10-06T06:13:26.433Z,37.40
2017-10-06T06:15:55.669Z,37.40
2017-10-06T06:18:24.366Z,37.70
2017-10-06T06:20:53.409Z,37.70
2017-10-06T06:23:21.529Z,37.70
2017-10-06T06:25:50.225Z,37.90
2017-10-06T06:28:20.159Z,37.90
2017-10-06T06:30:50.781Z,37.80
2017-10-06T06:33:21.753Z,38.20
2017-10-06T06:35:50.377Z,38.90
2017-10-06T06:38:22.489Z,40.70
2017-10-06T06:40:51.449Z,40.60
2017-10-06T06:43:21.025Z,43.00
2017-10-06T06:45:50.297Z,42.90
2017-10-06T06:48:18.777Z,42.90
2017-10-06T06:50:46.813Z,42.40
2017-10-06T06:53:16.097Z,41.30
2017-10-06T06:55:46.278Z,41.20
2017-10-06T06:58:14.929Z,40.80
2017-10-06T07:00:44.193Z,40.20
2017-10-06T07:03:12.653Z,40.10
2017-10-06T07:05:41.613Z,39.90
2017-10-06T07:08:10.738Z,39.50
2017-10-06T07:10:39.549Z,39.40
2017-10-06T07:13:08.249Z,38.90
2017-10-06T07:15:36.437Z,39.20
2017-10-06T07:18:05.245Z,39.30
2017-10-06T07:20:33.726Z,39.30
2017-10-06T07:23:02.614Z,39.30
2017-10-06T07:25:32.563Z,39.30
2017-10-06T07:28:03.585Z,39.00
2017-10-06T07:30:33.126Z,39.00
2017-10-06T07:33:04.957Z,39.30
2017-10-06T07:35:33.521Z,39.30
2017-10-06T07:38:02.881Z,39.30
2017-10-06T07:40:31.587Z,39.20
2017-10-06T07:43:00.905Z,39.20
2017-10-06T07:45:31.023Z,39.20
2017-10-06T07:47:59.613Z,39.40
2017-10-06T07:50:29.085Z,39.80
2017-10-06T07:52:57.613Z,39.80
2017-10-06T07:55:26.617Z,41.00
2017-10-06T07:57:56.261Z,43.10
2017-10-06T08:00:25.080Z,43.10
2017-10-06T08:02:54.553Z,43.60
2017-10-06T08:05:23.175Z,43.80
2017-10-06T08:07:51.246Z,43.30
2017-10-06T08:10:19.769Z,42.30
2017-10-06T08:12:48.614Z,41.50
2017-10-06T08:15:18.881Z,40.80
2017-10-06T08:17:48.134Z,40.80
2017-10-06T08:20:18.257Z,40.60
2017-10-06T08:22:47.389Z,40.20
2017-10-06T08:25:15.900Z,39.90
2017-10-06T08:27:43.858Z,39.90
2017-10-06T08:30:12.589Z,39.50
2017-10-06T08:32:40.881Z,39.50
2017-10-06T08:35:10.251Z,39.40
2017-10-06T08:37:38.942Z,39.40
2017-10-06T08:40:07.237Z,39.40
2017-10-06T08:42:35.357Z,39.20
2017-10-06T08:45:04.101Z,39.20
2017-10-06T08:47:32.201Z,39.20
2017-10-06T08:50:00.942Z,39.10
2017-10-06T08:52:28.945Z,39.10
2017-10-06T08:54:57.070Z,39.00
2017-10-06T08:57:25.078Z,39.10
2017-10-06T08:59:53.049Z,39.20
2017-10-06T09:02:21.750Z,39.10
2017-10-06T09:04:49.786Z,39.10
2017-10-06T09:07:17.813Z,38.70
2017-10-06T09:09:46.667Z,38.90
2017-10-06T09:12:27.398Z,38.90
2017-10-06T09:14:55.909Z,38.80
2017-10-06T09:17:24.687Z,38.70
2017-10-06T09:19:52.669Z,38.40
2017-10-06T09:22:20.821Z,38.50
2017-10-06T09:24:48.857Z,38.30
2017-10-06T09:27:17.467Z,38.30
2017-10-06T09:29:46.900Z,38.00
2017-10-06T09:32:15.684Z,38.00
2017-10-06T09:34:44.149Z,38.30
2017-10-06T09:37:13.065Z,38.00
2017-10-06T09:39:41.033Z,38.30
2017-10-06T09:42:08.988Z,38.40
2017-10-06T09:44:37.080Z,38.30
2017-10-06T09:47:05.697Z,38.00
2017-10-06T09:49:34.216Z,38.00
2017-10-06T09:52:03.689Z,38.00
2017-10-06T09:54:31.691Z,38.00
2017-10-06T09:57:00.357Z,38.10
2017-10-06T09:59:29.153Z,38.10
2017-10-06T10:01:58.305Z,37.90
2017-10-06T10:04:26.885Z,37.90
2017-10-06T10:06:55.741Z,37.70
2017-10-06T10:09:24.489Z,37.70
2017-10-06T10:11:52.409Z,37.70
2017-10-06T10:14:21.949Z,37.90
2017-10-06T10:16:50.629Z,37.90
2017-10-06T10:19:18.633Z,37.90
2017-10-06T10:21:47.390Z,37.70
2017-10-06T10:24:15.317Z,37.60
2017-10-06T10:26:44.045Z,37.50
2017-10-06T10:29:12.838Z,37.50
2017-10-06T10:31:41.210Z,37.50
2017-10-06T10:34:09.173Z,37.70
2017-10-06T10:36:37.778Z,37.40
2017-10-06T10:39:05.926Z,37.50
2017-10-06T10:41:33.897Z,37.30
2017-10-06T10:44:02.709Z,37.40
2017-10-06T10:46:31.257Z,37.50
2017-10-06T10:49:00.126Z,37.50
2017-10-06T10:51:31.934Z,37.50
2017-10-06T10:54:00.137Z,37.50
2017-10-06T10:56:28.876Z,37.50
2017-10-06T10:58:57.792Z,37.30
2017-10-06T11:01:26.577Z,37.30
2017-10-06T11:03:54.953Z,37.30
2017-10-06T11:06:23.889Z,37.30
2017-10-06T11:08:52.339Z,37.30
2017-10-06T11:11:21.221Z,37.20
2017-10-06T11:13:49.485Z,37.20
2017-10-06T11:16:18.749Z,37.10
2017-10-06T11:18:47.227Z,37.10
2017-10-06T11:21:16.089Z,37.00
2017-10-06T11:23:44.274Z,37.00
2017-10-06T11:26:12.393Z,37.00
2017-10-06T11:28:41.401Z,36.90
2017-10-06T11:31:10.865Z,36.80
2017-10-06T11:33:39.589Z,36.80
2017-10-06T11:36:08.957Z,36.70
2017-10-06T11:38:37.185Z,36.70
2017-10-06T11:41:05.498Z,36.70
2017-10-06T11:43:33.665Z,36.70
2017-10-06T11:46:02.141Z,36.70
2017-10-06T11:48:30.242Z,36.70
2017-10-06T11:50:58.833Z,36.60
2017-10-06T11:53:27.314Z,36.60
2017-10-06T11:55:55.421Z,36.60
2017-10-06T11:58:24.329Z,36.40
2017-10-06T12:00:52.497Z,36.40
2017-10-06T12:03:20.597Z,36.40
2017-10-06T12:05:48.810Z,36.40
2017-10-06T12:08:16.870Z,36.50
2017-10-06T12:10:45.021Z,36.40
2017-10-06T12:13:13.357Z,36.10
2017-10-06T12:15:42.285Z,36.10
2017-10-06T12:18:10.522Z,36.00
2017-10-06T12:20:39.605Z,35.90
2017-10-06T12:23:07.717Z,35.90
2017-10-06T12:25:35.729Z,35.90
2017-10-06T12:28:04.017Z,35.90
2017-10-06T12:30:32.193Z,35.80
2017-10-06T12:33:00.316Z,35.70
2017-10-06T12:35:28.549Z,35.70
2017-10-06T12:37:56.984Z,35.70
2017-10-06T12:40:33.160Z,35.70
2017-10-06T12:43:01.562Z,35.60
2017-10-06T12:45:29.541Z,35.40
2017-10-06T12:47:57.761Z,35.50
2017-10-06T12:50:26.277Z,35.50
2017-10-06T12:52:54.858Z,35.40
2017-10-06T12:55:24.530Z,35.40
2017-10-06T12:57:52.861Z,35.30
2017-10-06T13:00:21.089Z,35.20
2017-10-06T13:02:49.997Z,35.10
2017-10-06T13:05:18.630Z,35.10
2017-10-06T13:07:46.637Z,35.10
2017-10-06T13:10:17.158Z,35.00
2017-10-06T13:12:46.009Z,34.90
2017-10-06T13:15:15.309Z,34.90
2017-10-06T13:17:47.860Z,34.90
2017-10-06T13:20:15.969Z,34.80
2017-10-06T13:22:44.626Z,34.70
2017-10-06T13:25:13.113Z,34.70
2017-10-06T13:27:41.120Z,34.60
2017-10-06T13:30:09.105Z,34.60
2017-10-06T13:32:37.414Z,34.50
2017-10-06T13:35:05.417Z,34.50
2017-10-06T13:37:33.994Z,34.40
2017-10-06T13:40:02.414Z,34.40
2017-10-06T13:42:30.361Z,34.40
2017-10-06T13:44:58.461Z,34.30
2017-10-06T13:47:26.537Z,34.30
2017-10-06T13:49:55.197Z,34.30
2017-10-06T13:52:23.825Z,34.30
2017-10-06T13:54:53.166Z,34.20
2017-10-06T13:57:21.845Z,34.20
2017-10-06T13:59:49.838Z,34.10
2017-10-06T14:02:17.930Z,34.10
2017-10-06T14:04:46.443Z,34.10
2017-10-06T14:07:15.810Z,34.00
2017-10-06T14:09:44.781Z,34.00
2017-10-06T14:12:13.456Z,33.90
2017-10-06T14:14:41.374Z,33.90
2017-10-06T14:17:09.494Z,33.80
2017-10-06T14:19:37.445Z,33.70
2017-10-06T14:22:05.890Z,33.70
2017-10-06T14:24:34.545Z,33.70
2017-10-06T14:27:03.233Z,33.70
2017-10-06T14:29:31.206Z,33.70
2017-10-06T14:31:59.327Z,33.70
2017-10-06T14:34:28.025Z,33.60
2017-10-06T14:36:57.257Z,33.60
2017-10-06T14:39:26.874Z,33.50
2017-10-06T14:41:55.450Z,33.50
2017-10-06T14:44:23.449Z,33.50
2017-10-06T14:46:51.633Z,33.50
2017-10-06T14:49:19.625Z,33.40
2017-10-06T14:51:48.890Z,33.50
2017-10-06T14:54:17.625Z,33.40
2017-10-06T14:56:47.000Z,33.40
2017-10-06T14:59:14.950Z,33.40
2017-10-06T15:01:43.013Z,33.40
2017-10-06T15:04:12.906Z,33.40
2017-10-06T15:06:41.333Z,33.40
2017-10-06T15:09:10.162Z,33.40
2017-10-06T15:11:39.533Z,33.40
2017-10-06T15:14:08.149Z,33.40
2017-10-06T15:16:37.005Z,33.30
2017-10-06T15:19:05.052Z,33.30
2017-10-06T15:21:33.086Z,33.30
2017-10-06T15:24:02.811Z,33.30
2017-10-06T15:26:31.113Z,33.30
2017-10-06T15:28:59.697Z,33.30
2017-10-06T15:31:27.773Z,33.30
2017-10-06T15:33:55.702Z,33.30
2017-10-06T15:36:25.041Z,33.30
2017-10-06T15:38:53.900Z,33.30
2017-10-06T15:41:23.236Z,33.20
2017-10-06T15:43:51.173Z,33.20
2017-10-06T15:46:20.469Z,33.20
2017-10-06T15:48:49.465Z,33.10
2017-10-06T15:51:18.673Z,33.20
2017-10-06T15:53:47.389Z,33.10
2017-10-06T15:56:16.001Z,33.10
2017-10-06T15:58:44.550Z,33.10
2017-10-06T16:01:13.034Z,33.10
2017-10-06T16:03:40.993Z,33.10
2017-10-06T16:06:08.985Z,33.10
2017-10-06T16:08:37.565Z,33.10
2017-10-06T16:11:05.977Z,33.10
2017-10-06T16:13:34.697Z,33.10
2017-10-06T16:16:05.125Z,33.10
2017-10-06T16:18:33.981Z,33.10
2017-10-06T16:21:01.933Z,33.10
2017-10-06T16:23:30.778Z,33.10
2017-10-06T16:26:00.045Z,33.10
2017-10-06T16:28:28.566Z,33.10
2017-10-06T16:30:58.239Z,33.00
2017-10-06T16:33:26.177Z,33.00
2017-10-06T16:35:54.183Z,33.00
2017-10-06T16:38:22.765Z,33.00
2017-10-06T16:40:51.330Z,33.00
2017-10-06T16:43:20.077Z,33.00
2017-10-06T16:45:49.613Z,32.90
2017-10-06T16:48:18.305Z,32.90
2017-10-06T16:50:46.369Z,32.90
2017-10-06T16:53:15.174Z,32.90
2017-10-06T16:55:43.101Z,32.80
2017-10-06T16:58:12.533Z,32.80
2017-10-06T17:00:41.162Z,32.80
2017-10-06T17:03:10.325Z,32.80
2017-10-06T17:05:38.325Z,32.80
2017-10-06T17:08:06.877Z,32.80
2017-10-06T17:10:35.361Z,32.70
2017-10-06T17:13:03.940Z,32.80
2017-10-06T17:15:33.482Z,32.80
2017-10-06T17:18:02.205Z,32.70
2017-10-06T17:20:30.905Z,32.70
2017-10-06T17:22:58.961Z,32.70
2017-10-06T17:25:28.129Z,32.70
2017-10-06T17:27:56.576Z,32.70
2017-10-06T17:30:26.229Z,32.60
2017-10-06T17:32:54.874Z,32.60
2017-10-06T17:35:22.826Z,32.70
2017-10-06T17:37:50.921Z,32.60
2017-10-06T17:40:19.609Z,32.60
2017-10-06T17:42:48.261Z,32.60
2017-10-06T17:45:17.701Z,32.60
2017-10-06T17:47:46.357Z,32.50
2017-10-06T17:50:15.089Z,32.60
2017-10-06T17:52:43.429Z,32.50
2017-10-06T17:55:11.937Z,32.60
2017-10-06T17:57:40.414Z,32.50
2017-10-06T18:00:09.930Z,32.50
2017-10-06T18:02:38.330Z,32.50
2017-10-06T18:05:06.257Z,32.50
2017-10-06T18:07:34.474Z,32.50
2017-10-06T18:10:03.144Z,32.40
2017-10-06T18:12:31.718Z,32.50
2017-10-06T18:14:59.792Z,32.40
2017-10-06T18:17:27.794Z,32.40
2017-10-06T18:19:55.749Z,32.40
2017-10-06T18:22:23.789Z,32.40
2017-10-06T18:24:51.745Z,32.40
2017-10-06T18:27:21.253Z,32.40
2017-10-06T18:29:50.701Z,32.40
2017-10-06T18:32:19.381Z,32.40
2017-10-06T18:34:47.353Z,32.40
2017-10-06T18:37:15.429Z,32.30
2017-10-06T18:39:43.357Z,32.30
2017-10-06T18:42:12.729Z,32.30
2017-10-06T18:44:41.497Z,32.30
2017-10-06T18:47:09.466Z,32.30
2017-10-06T18:49:38.034Z,32.30
2017-10-06T18:52:06.106Z,32.30
2017-10-06T18:54:34.245Z,32.20
2017-10-06T18:57:02.951Z,32.20
2017-10-06T18:59:31.722Z,32.20
2017-10-06T19:02:00.893Z,32.20
2017-10-06T19:04:29.449Z,32.20
2017-10-06T19:06:57.556Z,32.20
2017-10-06T19:09:25.521Z,32.20
2017-10-06T19:11:55.366Z,32.20
2017-10-06T19:14:24.933Z,32.20
2017-10-06T19:16:52.876Z,32.20
2017-10-06T19:19:20.980Z,32.20
2017-10-06T19:21:49.029Z,32.20
2017-10-06T19:24:17.011Z,32.20
2017-10-06T19:26:44.995Z,32.20
2017-10-06T19:29:13.867Z,32.20
2017-10-06T19:31:42.921Z,32.20
2017-10-06T19:34:11.789Z,32.10
2017-10-06T19:36:40.029Z,32.10
2017-10-06T19:39:08.302Z,32.10
2017-10-06T19:41:36.793Z,32.10
2017-10-06T19:44:05.045Z,32.10
2017-10-06T19:46:33.597Z,32.10
2017-10-06T19:49:03.930Z,32.10
2017-10-06T19:51:32.881Z,32.10
2017-10-06T19:54:00.849Z,32.00
2017-10-06T19:56:28.774Z,32.00
2017-10-06T19:58:58.355Z,32.10
2017-10-06T20:01:27.725Z,32.00
2017-10-06T20:03:56.170Z,32.00
2017-10-06T20:06:25.021Z,32.00
2017-10-06T20:08:53.017Z,32.00
2017-10-06T20:11:21.725Z,32.00
2017-10-06T20:13:49.833Z,32.00
2017-10-06T20:16:17.793Z,32.00
2017-10-06T20:18:45.765Z,32.00
2017-10-06T20:21:13.997Z,32.00
2017-10-06T20:23:42.740Z,32.00
2017-10-06T20:26:10.722Z,32.00
2017-10-06T20:28:39.220Z,32.00
2017-10-06T20:31:07.161Z,32.00
2017-10-06T20:33:35.084Z,32.00
2017-10-06T20:36:04.529Z,32.00
2017-10-06T20:38:33.197Z,31.90
2017-10-06T20:41:01.197Z,31.90
2017-10-06T20:43:29.321Z,31.90
2017-10-06T20:45:58.696Z,31.90
2017-10-06T20:48:26.829Z,31.90
2017-10-06T20:50:55.629Z,31.90
2017-10-06T20:53:24.276Z,31.90
2017-10-06T20:55:52.997Z,31.90
2017-10-06T20:58:21.125Z,31.90
2017-10-06T21:00:49.725Z,31.90
2017-10-06T21:03:19.093Z,31.90
2017-10-06T21:18:34.090Z,32.10
2017-10-06T21:21:03.456Z,32.00
2017-10-06T21:23:31.577Z,32.00
2017-10-06T21:25:59.704Z,31.90
2017-10-06T21:28:27.812Z,31.90
2017-10-06T21:30:56.976Z,31.80
2017-10-06T21:33:25.065Z,31.90
2017-10-06T21:35:53.021Z,31.80
2017-10-06T21:38:21.345Z,31.80
2017-10-06T21:40:49.452Z,31.80
2017-10-06T21:43:17.402Z,31.70
2017-10-06T21:45:46.165Z,31.70
2017-10-06T21:48:15.612Z,31.70
2017-10-06T21:50:44.261Z,31.70
2017-10-06T21:53:13.420Z,31.70
2017-10-06T21:55:41.453Z,31.60
2017-10-06T21:58:09.417Z,31.60
2017-10-06T22:00:37.380Z,31.60
2017-10-06T22:03:05.583Z,31.60
2017-10-06T22:05:33.565Z,31.60
2017-10-06T22:08:01.520Z,31.60
2017-10-06T22:10:29.561Z,31.60
2017-10-06T22:12:58.256Z,31.60
2017-10-06T22:15:26.256Z,31.60
2017-10-06T22:17:54.937Z,31.60
2017-10-06T22:20:23.450Z,31.50
2017-10-06T22:22:51.404Z,31.50
2017-10-06T22:25:20.084Z,31.60
2017-10-06T22:27:48.049Z,31.50
2017-10-06T22:30:16.006Z,31.50
2017-10-06T22:32:44.605Z,31.50
2017-10-06T22:35:13.121Z,31.50
2017-10-06T22:37:41.841Z,31.50
2017-10-06T22:40:11.284Z,31.40
2017-10-06T22:42:39.968Z,31.40
2017-10-06T22:45:07.943Z,31.40
2017-10-06T22:47:36.061Z,31.40
2017-10-06T22:50:04.497Z,31.40
2017-10-06T22:52:33.081Z,31.40
2017-10-06T22:55:01.104Z,31.40
2017-10-06T22:57:29.797Z,31.40
2017-10-06T22:59:58.493Z,31.40
2017-10-06T23:02:27.929Z,31.30
2017-10-06T23:04:56.612Z,31.40
2017-10-06T23:07:25.077Z,31.30
2017-10-06T23:09:53.888Z,31.30
2017-10-06T23:12:21.828Z,31.30
2017-10-06T23:14:50.528Z,31.10
2017-10-06T23:17:19.132Z,31.00
2017-10-06T23:19:47.813Z,31.10
2017-10-06T23:22:16.229Z,31.10
2017-10-06T23:24:44.888Z,31.10
2017-10-06T23:27:13.471Z,31.10
2017-10-06T23:29:41.537Z,31.10
2017-10-06T23:32:10.260Z,31.00
2017-10-06T23:34:38.913Z,31.00
2017-10-06T23:37:07.367Z,31.00
2017-10-06T23:39:37.076Z,30.90
2017-10-06T23:42:06.340Z,30.80
2017-10-06T23:44:34.324Z,30.80
2017-10-06T23:47:02.425Z,30.90
2017-10-06T23:49:31.789Z,30.80
2017-10-06T23:52:00.512Z,30.70
2017-10-06T23:54:29.955Z,30.70
2017-10-06T23:56:57.896Z,30.70
2017-10-06T23:59:25.816Z,30.60
